Time;durP1;ratioP1;P1;durP2;ratioP2;P2;SDS_P1;SDS_P2;PMS_P1;PMS_P2;Temp;Humidity;BMP_temperature;BMP_pressure;BME280_temperature;BME280_humidity;BME280_pressure;Samples;Min_cycle;Max_cycle;Signal;HPM_P1;HPM_P2
2021/04/14 00:01:48;;;;;;;9.55;4.60;;;1.40;99.90;;;;;;5071531;28;20860;-63
2021/04/14 00:04:14;;;;;;;7.22;4.35;;;1.40;99.90;;;;;;5070558;28;20379;-59
2021/04/14 00:06:40;;;;;;;8.80;5.40;;;1.40;99.90;;;;;;5071018;28;20387;-63
2021/04/14 00:09:06;;;;;;;8.75;4.90;;;1.50;99.90;;;;;;5071114;28;20383;-62
2021/04/14 00:11:31;;;;;;;8.03;4.60;;;1.50;99.90;;;;;;5069867;28;20995;-63
2021/04/14 00:13:57;;;;;;;9.10;4.80;;;3.30;99.90;;;;;;5070992;28;20829;-63
2021/04/14 00:16:25;;;;;;;8.52;4.75;;;1.30;99.90;;;;;;5070262;28;20368;-63
2021/04/14 00:18:51;;;;;;;9.30;4.70;;;1.50;99.90;;;;;;5069252;28;20409;-63
2021/04/14 00:21:19;;;;;;;8.60;4.40;;;1.20;99.90;;;;;;5069504;28;20448;-63
2021/04/14 00:23:45;;;;;;;8.20;4.22;;;1.90;99.90;;;;;;5068995;28;20938;-64
2021/04/14 00:26:11;;;;;;;8.90;4.65;;;2.90;99.90;;;;;;5070581;28;20459;-61
2021/04/14 00:28:37;;;;;;;8.50;5.10;;;1.10;99.90;;;;;;5069651;28;20955;-62
2021/04/14 00:31:04;;;;;;;10.57;5.28;;;2.00;99.90;;;;;;5065507;28;20447;-63
2021/04/14 00:33:30;;;;;;;9.00;4.75;;;1.20;99.90;;;;;;5067312;28;20506;-63
2021/04/14 00:35:56;;;;;;;11.00;4.87;;;2.80;99.90;;;;;;5070122;28;20418;-63
2021/04/14 00:38:22;;;;;;;8.82;4.75;;;1.60;99.90;;;;;;5068076;28;20384;-63
2021/04/14 00:40:53;;;;;;;9.13;4.78;;;3.00;99.90;;;;;;5069515;28;20374;-63
2021/04/14 00:43:25;;;;;;;8.05;4.50;;;3.60;99.90;;;;;;5068449;28;20410;-62
2021/04/14 00:45:51;;;;;;;9.32;4.65;;;3.50;99.90;;;;;;5069274;28;20439;-62
2021/04/14 00:48:17;;;;;;;7.30;4.30;;;1.90;99.90;;;;;;5068315;28;20442;-61
2021/04/14 00:50:44;;;;;;;9.60;4.00;;;1.00;99.90;;;;;;5067931;28;20399;-63
2021/04/14 00:53:12;;;;;;;7.88;4.32;;;1.10;99.90;;;;;;5069992;28;20520;-63
2021/04/14 00:55:38;;;;;;;8.77;4.50;;;1.10;99.90;;;;;;5068166;28;20495;-63
2021/04/14 00:58:05;;;;;;;9.23;4.47;;;2.00;99.90;;;;;;5069955;28;20769;-63
2021/04/14 01:00:34;;;;;;;8.75;4.80;;;1.00;99.90;;;;;;5069290;28;20380;-61
2021/04/14 01:03:03;;;;;;;7.43;4.30;;;1.70;99.90;;;;;;5070238;28;20794;-61
2021/04/14 01:05:32;;;;;;;7.18;4.20;;;1.00;99.90;;;;;;5069161;28;20418;-64
2021/04/14 01:07:58;;;;;;;10.90;4.80;;;0.70;99.90;;;;;;5069989;28;20403;-61
2021/04/14 01:10:24;;;;;;;8.63;4.78;;;2.20;99.90;;;;;;5069215;28;20856;-61
2021/04/14 01:12:52;;;;;;;8.03;4.60;;;1.50;99.90;;;;;;5069910;28;20394;-61
2021/04/14 01:15:23;;;;;;;8.57;5.00;;;1.00;99.90;;;;;;5068881;28;20724;-60
2021/04/14 01:17:49;;;;;;;8.90;4.70;;;1.10;99.90;;;;;;5069550;28;20383;-61
2021/04/14 01:20:16;;;;;;;8.55;4.60;;;1.00;99.90;;;;;;5069834;28;20452;-58
2021/04/14 01:22:41;;;;;;;10.88;4.65;;;1.00;99.90;;;;;;5069728;28;20380;-62
2021/04/14 01:25:09;;;;;;;9.10;4.90;;;1.10;99.90;;;;;;5069766;28;20396;-61
2021/04/14 01:27:35;;;;;;;8.30;4.33;;;1.00;99.90;;;;;;5068932;28;20543;-62
2021/04/14 01:30:07;;;;;;;8.00;4.30;;;1.00;99.90;;;;;;5069816;28;20975;-62
2021/04/14 01:32:33;;;;;;;9.85;5.15;;;0.80;99.90;;;;;;5069089;28;20492;-62
2021/04/14 01:34:58;;;;;;;9.30;4.40;;;1.30;99.90;;;;;;5069880;28;20423;-61
2021/04/14 01:37:24;;;;;;;7.80;4.70;;;1.40;99.90;;;;;;5068882;28;20386;-61
2021/04/14 01:39:50;;;;;;;10.30;4.90;;;0.80;99.90;;;;;;5069761;28;20379;-62
2021/04/14 01:42:15;;;;;;;8.10;4.90;;;0.70;99.90;;;;;;5069405;28;20376;-57
2021/04/14 01:44:41;;;;;;;11.23;5.65;;;0.80;99.90;;;;;;5068344;28;20722;-63
2021/04/14 01:47:06;;;;;;;7.80;4.20;;;2.10;99.90;;;;;;5069599;28;20687;-61
2021/04/14 01:49:32;;;;;;;10.53;5.27;;;0.70;99.90;;;;;;5068631;28;20814;-61
2021/04/14 01:51:58;;;;;;;10.07;5.10;;;0.80;99.90;;;;;;5069338;28;20916;-61
2021/04/14 01:54:23;;;;;;;9.07;5.50;;;0.80;99.90;;;;;;5068877;28;20411;-62
2021/04/14 01:56:49;;;;;;;9.70;5.17;;;2.20;99.90;;;;;;5069320;28;20918;-61
2021/04/14 01:59:15;;;;;;;10.20;5.67;;;1.50;99.90;;;;;;5069107;28;20380;-57
2021/04/14 02:01:40;;;;;;;12.43;5.82;;;1.40;99.90;;;;;;5068753;28;20414;-61
2021/04/14 02:04:06;;;;;;;9.20;5.90;;;0.70;99.90;;;;;;5069637;28;20376;-62
2021/04/14 02:06:32;;;;;;;9.60;5.43;;;2.00;99.90;;;;;;5068405;28;20375;-62
2021/04/14 02:08:57;;;;;;;11.70;6.10;;;0.90;99.90;;;;;;5069190;28;20411;-62
2021/04/14 02:11:23;;;;;;;11.13;6.30;;;0.60;99.90;;;;;;5068601;28;20379;-61
2021/04/14 02:13:49;;;;;;;10.00;5.67;;;2.00;99.90;;;;;;5069412;28;20717;-62
2021/04/14 02:16:21;;;;;;;12.00;6.00;;;2.30;99.90;;;;;;5068902;28;20387;-57
2021/04/14 02:18:48;;;;;;;10.50;5.90;;;0.60;99.90;;;;;;5069445;28;20371;-62
2021/04/14 02:21:14;;;;;;;11.38;6.30;;;0.60;99.90;;;;;;5069154;28;20375;-57
2021/04/14 02:23:41;;;;;;;12.10;6.00;;;0.60;99.90;;;;;;5068551;28;20382;-61
2021/04/14 02:26:13;;;;;;;9.57;5.80;;;0.50;99.90;;;;;;5069193;28;20392;-61
2021/04/14 02:28:39;;;;;;;9.75;5.90;;;0.60;99.90;;;;;;5068666;28;20404;-62
2021/04/14 02:31:06;;;;;;;9.43;5.47;;;2.70;99.90;;;;;;5069375;28;20879;-62
2021/04/14 02:33:33;;;;;;;10.00;5.70;;;0.60;99.90;;;;;;5068547;28;20391;-62
2021/04/14 02:35:59;;;;;;;11.05;5.90;;;1.70;99.90;;;;;;5069178;28;20459;-63
2021/04/14 02:38:25;;;;;;;11.00;5.93;;;2.00;99.90;;;;;;5068421;28;20755;-62
2021/04/14 02:40:51;;;;;;;9.43;5.70;;;0.50;99.90;;;;;;5069353;28;20374;-63
2021/04/14 02:43:18;;;;;;;13.70;6.20;;;3.20;99.90;;;;;;5068611;28;20535;-57
2021/04/14 02:45:43;;;;;;;10.57;5.50;;;3.00;99.90;;;;;;5069119;28;20798;-60
2021/04/14 02:48:10;;;;;;;10.93;6.40;;;2.50;99.90;;;;;;5069243;28;20490;-62
2021/04/14 02:50:36;;;;;;;10.32;6.10;;;0.50;99.90;;;;;;5068249;28;20384;-62
2021/04/14 02:53:03;;;;;;;10.88;7.10;;;0.50;99.90;;;;;;5068771;28;20852;-63
2021/04/14 02:55:29;;;;;;;11.18;5.88;;;1.70;99.90;;;;;;5050442;28;20733;-62
2021/04/14 02:57:56;;;;;;;10.90;5.32;;;0.40;99.90;;;;;;5071197;28;20407;-61
2021/04/14 03:00:23;;;;;;;10.32;5.63;;;2.50;99.90;;;;;;5069668;28;20404;-62
2021/04/14 03:02:49;;;;;;;10.70;6.20;;;0.30;99.90;;;;;;5072137;28;20475;-62
2021/04/14 03:05:20;;;;;;;9.37;5.20;;;0.70;99.90;;;;;;5070172;28;20391;-57
2021/04/14 03:07:46;;;;;;;10.30;5.40;;;2.50;99.90;;;;;;5072092;28;20457;-63
2021/04/14 03:10:16;;;;;;;10.32;5.25;;;0.20;99.90;;;;;;5070497;28;20392;-62
2021/04/14 03:12:42;;;;;;;8.15;4.95;;;2.50;99.90;;;;;;5071214;28;20509;-60
2021/04/14 03:15:10;;;;;;;11.23;5.80;;;2.70;99.90;;;;;;5067459;28;20497;-62
2021/04/14 03:17:36;;;;;;;9.82;5.10;;;0.40;99.90;;;;;;5053255;28;21036;-62
2021/04/14 03:20:06;;;;;;;11.40;5.40;;;0.80;99.90;;;;;;5069925;28;20395;-62
2021/04/14 03:22:33;;;;;;;10.50;5.70;;;0.40;99.90;;;;;;5070072;28;20394;-62
2021/04/14 03:24:59;;;;;;;10.30;4.80;;;0.80;99.90;;;;;;5069808;28;20395;-62
2021/04/14 03:27:24;;;;;;;9.05;5.40;;;2.50;99.90;;;;;;5070995;28;20869;-62
2021/04/14 03:29:50;;;;;;;8.23;4.60;;;1.00;99.90;;;;;;5069621;28;20395;-63
2021/04/14 03:32:15;;;;;;;9.60;5.13;;;0.30;99.90;;;;;;5068838;28;20824;-58
2021/04/14 03:34:41;;;;;;;8.00;5.03;;;-0.70;99.90;;;;;;5070260;28;20394;-62
2021/04/14 03:37:07;;;;;;;9.63;4.95;;;2.20;99.90;;;;;;5071041;28;20486;-63
2021/04/14 03:39:32;;;;;;;12.73;6.03;;;0.70;99.90;;;;;;5052967;28;20383;-65
2021/04/14 03:41:58;;;;;;;8.60;4.90;;;0.30;99.90;;;;;;5070091;28;20399;-64
2021/04/14 03:44:24;;;;;;;9.27;4.82;;;0.30;99.90;;;;;;5070842;28;20437;-63
2021/04/14 03:46:50;;;;;;;9.93;5.28;;;0.20;99.90;;;;;;5071012;28;20752;-63
2021/04/14 03:49:16;;;;;;;9.67;5.30;;;0.60;99.90;;;;;;5069220;28;20513;-58
2021/04/14 03:51:41;;;;;;;9.73;5.40;;;1.60;99.90;;;;;;5052885;28;20407;-63
2021/04/14 03:54:07;;;;;;;13.02;5.10;;;0.30;99.90;;;;;;5071790;28;20399;-63
2021/04/14 03:56:32;;;;;;;9.83;5.20;;;0.20;99.90;;;;;;5068914;28;20487;-63
2021/04/14 03:58:58;;;;;;;9.60;5.00;;;0.60;99.90;;;;;;5070051;28;20407;-63
2021/04/14 04:01:27;;;;;;;8.15;4.93;;;0.30;99.90;;;;;;5069291;28;20387;-63
2021/04/14 04:03:53;;;;;;;11.20;4.57;;;0.20;99.90;;;;;;5071201;28;20379;-63
2021/04/14 04:06:20;;;;;;;9.75;5.00;;;1.00;99.90;;;;;;5068313;28;20655;-60
2021/04/14 04:08:46;;;;;;;10.25;4.80;;;0.20;99.90;;;;;;5070246;28;20707;-61
2021/04/14 04:11:13;;;;;;;10.43;4.60;;;0.80;99.90;;;;;;5071378;28;20379;-62
2021/04/14 04:13:39;;;;;;;10.03;5.00;;;1.50;99.90;;;;;;5068227;28;20399;-62
2021/04/14 04:16:06;;;;;;;9.23;5.35;;;0.20;99.90;;;;;;5069503;28;20430;-59
2021/04/14 04:18:32;;;;;;;11.90;5.07;;;1.40;99.90;;;;;;5070007;28;20436;-63
2021/04/14 04:20:58;;;;;;;9.30;5.53;;;2.50;99.90;;;;;;5067110;28;20468;-62
2021/04/14 04:23:25;;;;;;;8.65;5.20;;;1.40;99.90;;;;;;5068908;28;20875;-61
2021/04/14 04:25:51;;;;;;;8.18;4.93;;;0.20;99.90;;;;;;5068470;28;20400;-63
2021/04/14 04:28:18;;;;;;;10.70;5.40;;;0.50;99.90;;;;;;5069469;28;20423;-57
2021/04/14 04:30:44;;;;;;;8.70;5.00;;;0.20;99.90;;;;;;5068024;28;20418;-63
2021/04/14 04:33:09;;;;;;;11.20;5.80;;;0.00;99.90;;;;;;5068811;28;20718;-62
2021/04/14 04:35:35;;;;;;;10.30;5.30;;;1.60;99.90;;;;;;5069069;28;20929;-62
2021/04/14 04:38:02;;;;;;;9.65;4.70;;;1.30;99.90;;;;;;5069862;28;20399;-62
2021/04/14 04:40:28;;;;;;;11.45;5.00;;;0.00;99.90;;;;;;5068720;28;20498;-63
2021/04/14 04:42:54;;;;;;;10.52;5.20;;;2.70;99.90;;;;;;5068623;28;20399;-63
2021/04/14 04:45:23;;;;;;;8.47;5.07;;;0.10;99.90;;;;;;5070007;28;20454;-57
2021/04/14 04:47:49;;;;;;;10.52;5.00;;;1.90;99.90;;;;;;5068410;28;20807;-63
2021/04/14 04:50:16;;;;;;;9.50;4.80;;;2.40;99.90;;;;;;5070048;28;20445;-63
2021/04/14 04:52:42;;;;;;;10.95;5.05;;;0.00;99.90;;;;;;5050096;28;20374;-62
2021/04/14 04:55:10;;;;;;;9.83;5.10;;;0.90;99.90;;;;;;5062495;28;20387;-63
2021/04/14 04:57:36;;;;;;;9.50;4.97;;;0.30;99.90;;;;;;5068397;28;20383;-60
2021/04/14 05:00:05;;;;;;;9.15;4.80;;;1.30;99.90;;;;;;5068711;28;20387;-62
2021/04/14 05:02:30;;;;;;;9.15;4.70;;;0.50;99.90;;;;;;5054265;28;20857;-63
2021/04/14 05:04:56;;;;;;;9.48;5.25;;;0.60;99.90;;;;;;5069035;28;20465;-63
2021/04/14 05:07:22;;;;;;;12.10;5.20;;;0.60;99.90;;;;;;5049168;28;20404;-61
2021/04/14 05:09:47;;;;;;;13.45;5.53;;;0.80;99.90;;;;;;5070445;28;20441;-65
2021/04/14 05:12:13;;;;;;;11.60;5.70;;;0.80;99.90;;;;;;5067490;28;20445;-63
2021/04/14 05:14:39;;;;;;;8.05;4.63;;;2.80;99.90;;;;;;5064513;28;20440;-66
2021/04/14 05:17:05;;;;;;;10.40;4.78;;;1.30;99.90;;;;;;5070536;28;20387;-66
2021/04/14 05:19:31;;;;;;;10.30;5.30;;;1.70;99.90;;;;;;5064636;28;20471;-66
2021/04/14 05:21:57;;;;;;;9.57;5.17;;;2.00;99.90;;;;;;5044921;28;21002;-64
2021/04/14 05:24:23;;;;;;;12.02;5.45;;;2.00;99.90;;;;;;5048162;28;20391;-63
2021/04/14 05:26:49;;;;;;;10.35;5.40;;;1.90;99.90;;;;;;5058368;28;20833;-64
2021/04/14 05:29:14;;;;;;;9.82;5.28;;;2.20;99.90;;;;;;5062630;28;20422;-62
2021/04/14 05:31:41;;;;;;;12.93;5.40;;;2.10;99.90;;;;;;5065239;28;21070;-65
2021/04/14 05:34:08;;;;;;;12.45;4.82;;;2.30;99.90;;;;;;5059851;28;20389;-67
2021/04/14 05:36:34;;;;;;;12.40;4.88;;;2.60;99.90;;;;;;5062209;28;20722;-59
2021/04/14 05:39:00;;;;;;;11.63;4.53;;;3.00;99.90;;;;;;5063996;28;20496;-67
2021/04/14 05:41:26;;;;;;;10.23;4.72;;;3.60;99.90;;;;;;5048766;28;20478;-63
2021/04/14 05:43:52;;;;;;;15.73;4.70;;;4.30;99.90;;;;;;5049752;28;20839;-60
2021/04/14 05:46:20;;;;;;;9.00;4.43;;;4.70;99.90;;;;;;5049271;28;20385;-57
2021/04/14 05:48:48;;;;;;;9.00;4.80;;;4.90;99.90;;;;;;5049314;28;20460;-64
2021/04/14 05:51:20;;;;;;;11.18;5.43;;;4.60;99.90;;;;;;5049395;28;20380;-57
2021/04/14 05:53:47;;;;;;;13.13;5.32;;;4.30;99.90;;;;;;5056362;28;20388;-65
2021/04/14 05:56:13;;;;;;;13.20;5.60;;;4.20;99.90;;;;;;5051365;28;20908;-66
2021/04/14 05:58:39;;;;;;;11.65;5.40;;;4.40;99.90;;;;;;5068272;28;20408;-66
2021/04/14 06:01:06;;;;;;;12.32;5.13;;;4.40;99.90;;;;;;5068999;28;20788;-64
2021/04/14 06:03:32;;;;;;;11.10;5.50;;;4.60;99.90;;;;;;5068368;28;20380;-64
2021/04/14 06:05:59;;;;;;;11.98;5.25;;;5.20;99.90;;;;;;5051295;28;20768;-68
2021/04/14 06:08:26;;;;;;;10.73;5.03;;;6.20;99.90;;;;;;5050393;28;20498;-67
2021/04/14 06:10:51;;;;;;;11.82;5.53;;;7.60;99.90;;;;;;5068988;28;20380;-66
2021/04/14 06:13:17;;;;;;;11.30;5.00;;;8.90;99.90;;;;;;5068420;28;21108;-66
2021/04/14 06:15:43;;;;;;;11.70;4.90;;;8.70;95.00;;;;;;5050004;28;20474;-65
2021/04/14 06:18:09;;;;;;;10.07;4.43;;;9.60;92.60;;;;;;5069042;28;20865;-67
2021/04/14 06:20:36;;;;;;;7.15;3.45;;;8.80;92.90;;;;;;5067885;28;20429;-67
2021/04/14 06:23:05;;;;;;;8.50;3.90;;;8.40;93.30;;;;;;5069265;28;20453;-66
2021/04/14 06:25:35;;;;;;;8.50;4.50;;;8.00;93.50;;;;;;5067938;28;20714;-66
2021/04/14 06:28:05;;;;;;;13.70;4.78;;;7.40;94.60;;;;;;5068386;28;20410;-62
2021/04/14 06:30:33;;;;;;;9.38;5.20;;;6.70;96.90;;;;;;5069137;28;20445;-63
2021/04/14 06:32:58;;;;;;;10.02;4.65;;;6.50;99.00;;;;;;5073028;28;20388;-63
2021/04/14 06:35:24;;;;;;;10.30;4.50;;;6.20;99.90;;;;;;5071758;28;20391;-63
2021/04/14 06:37:50;;;;;;;8.93;4.50;;;6.00;99.90;;;;;;5072403;28;20466;-63
2021/04/14 06:43:13;;;;;;;10.48;5.72;;;6.10;99.90;;;;;;5071553;28;20845;-62
2021/04/14 06:45:43;;;;;;;12.33;6.10;;;6.40;99.90;;;;;;5071793;28;20376;-63
2021/04/14 06:48:24;;;;;;;12.38;5.18;;;6.60;99.90;;;;;;5072625;28;20406;-63
2021/04/14 06:50:56;;;;;;;10.97;5.20;;;6.90;99.90;;;;;;5072407;28;20380;-63
2021/04/14 06:53:49;;;;;;;9.68;5.10;;;7.10;99.60;;;;;;5072255;28;20371;-60
2021/04/14 06:56:18;;;;;;;10.60;5.88;;;8.40;97.90;;;;;;5072069;28;20406;-63
2021/04/14 06:58:52;;;;;;;13.00;5.83;;;10.10;93.20;;;;;;5071415;28;20396;-63
2021/04/14 07:01:25;;;;;;;10.30;5.97;;;11.50;90.00;;;;;;5072424;28;20383;-65
2021/04/14 07:04:16;;;;;;;10.68;6.55;;;12.60;80.70;;;;;;5072806;28;20435;-66
2021/04/14 07:06:45;;;;;;;11.02;6.63;;;13.70;74.10;;;;;;5071676;28;20797;-66
2021/04/14 07:09:19;;;;;;;11.75;7.78;;;14.50;67.40;;;;;;5072173;28;20399;-66
2021/04/14 07:11:45;;;;;;;13.93;7.18;;;14.70;63.30;;;;;;5071436;28;20404;-66
2021/04/14 07:14:12;;;;;;;9.02;6.35;;;14.30;61.30;;;;;;5072434;28;20380;-66
2021/04/14 07:16:49;;;;;;;10.90;6.10;;;14.80;61.80;;;;;;5071450;28;20712;-64
2021/04/14 07:19:35;;;;;;;9.90;6.23;;;15.60;58.10;;;;;;5072174;28;20845;-66
2021/04/14 07:22:21;;;;;;;11.13;6.47;;;15.20;58.00;;;;;;5053378;28;20384;-66
2021/04/14 07:25:06;;;;;;;10.52;6.25;;;15.20;57.70;;;;;;5071193;28;20391;-65
2021/04/14 07:27:57;;;;;;;10.05;6.72;;;15.00;57.50;;;;;;5071118;28;20407;-66
2021/04/14 07:30:40;;;;;;;11.07;7.00;;;15.20;57.60;;;;;;5071251;28;20845;-59
2021/04/14 07:33:24;;;;;;;9.40;6.07;;;15.80;56.30;;;;;;5071835;28;20902;-64
2021/04/14 07:36:02;;;;;;;10.48;5.95;;;15.90;56.90;;;;;;5071687;28;20395;-64
2021/04/14 07:38:51;;;;;;;11.70;5.80;;;17.30;53.10;;;;;;5069112;28;20386;-63
2021/04/14 07:41:36;;;;;;;9.80;5.80;;;17.20;53.20;;;;;;5060599;28;20411;-62
2021/04/14 07:44:08;;;;;;;8.73;6.15;;;16.80;52.40;;;;;;5053038;28;20787;-62
2021/04/14 07:46:36;;;;;;;11.02;6.15;;;17.10;53.00;;;;;;5069518;28;20400;-62
2021/04/14 07:49:05;;;;;;;11.30;6.07;;;16.70;51.50;;;;;;5069508;28;20399;-62
2021/04/14 07:51:31;;;;;;;10.10;6.05;;;16.30;52.30;;;;;;5069286;28;20404;-64
2021/04/14 07:54:01;;;;;;;9.48;5.60;;;15.70;53.30;;;;;;5070008;28;20927;-63
2021/04/14 07:56:38;;;;;;;10.05;4.80;;;15.90;53.00;;;;;;5070330;28;20396;-59
2021/04/14 07:59:07;;;;;;;8.35;5.47;;;17.30;49.20;;;;;;5069340;28;20474;-61
2021/04/14 08:01:35;;;;;;;8.73;5.00;;;17.60;49.70;;;;;;5069169;28;20387;-62
2021/04/14 08:04:41;;;;;;;8.25;4.60;;;18.80;47.10;;;;;;5069826;28;20453;-61
2021/04/14 08:07:18;;;;;;;6.47;4.10;;;19.00;46.40;;;;;;4987588;28;20425;-61
2021/04/14 08:10:09;;;;;;;7.47;4.23;;;18.80;45.70;;;;;;5058816;28;20402;-64
2021/04/14 08:12:39;;;;;;;7.68;3.90;;;20.20;43.30;;;;;;5069060;28;20399;-64
2021/04/14 08:15:15;;;;;;;7.68;4.15;;;20.10;42.10;;;;;;5070992;28;20414;-61
2021/04/14 08:17:42;;;;;;;8.30;4.30;;;18.30;45.20;;;;;;5069654;28;21195;-61
2021/04/14 08:20:24;;;;;;;6.53;3.60;;;19.10;45.30;;;;;;5070939;28;20401;-63
2021/04/14 08:22:50;;;;;;;10.57;4.10;;;19.70;42.70;;;;;;5070410;28;20384;-64
2021/04/14 08:25:27;;;;;;;7.60;4.18;;;20.20;42.30;;;;;;5070414;28;20479;-61
2021/04/14 08:27:55;;;;;;;7.30;4.00;;;19.10;43.40;;;;;;5070480;28;20487;-62
2021/04/14 08:30:24;;;;;;;10.82;4.60;;;18.70;43.80;;;;;;5070304;28;20387;-60
2021/04/14 08:32:53;;;;;;;7.85;4.50;;;18.80;43.40;;;;;;5070461;28;20399;-61
2021/04/14 08:35:30;;;;;;;9.63;4.60;;;19.20;43.30;;;;;;5070321;28;20834;-63
2021/04/14 08:38:27;;;;;;;9.65;4.00;;;20.10;42.40;;;;;;5070265;28;20429;-63
2021/04/14 08:40:59;;;;;;;7.82;4.50;;;19.50;42.10;;;;;;5070174;28;20859;-60
2021/04/14 08:43:28;;;;;;;8.88;4.50;;;18.20;43.60;;;;;;5069983;28;20372;-58
2021/04/14 08:45:54;;;;;;;7.30;3.95;;;17.80;44.60;;;;;;5070309;28;20465;-60
2021/04/14 08:48:30;;;;;;;8.33;4.80;;;18.60;43.80;;;;;;5070266;28;20462;-60
2021/04/14 08:50:58;;;;;;;9.43;4.30;;;18.40;43.30;;;;;;5070540;28;20384;-60
2021/04/14 08:53:31;;;;;;;18.60;9.43;;;18.10;44.10;;;;;;5069268;28;20384;-58
2021/04/14 08:55:56;;;;;;;16.23;8.77;;;18.40;45.10;;;;;;5070337;28;20383;-59
2021/04/14 08:58:23;;;;;;;13.43;7.30;;;18.30;44.30;;;;;;5069860;28;20391;-59
2021/04/14 09:00:49;;;;;;;11.63;5.35;;;17.40;44.90;;;;;;5069743;28;20376;-62
2021/04/14 09:03:22;;;;;;;8.80;4.47;;;16.80;46.30;;;;;;5069799;28;20402;-59
2021/04/14 09:05:48;;;;;;;8.13;4.10;;;18.30;44.80;;;;;;5051479;28;20386;-60
2021/04/14 09:08:19;;;;;;;8.48;4.57;;;18.50;44.70;;;;;;5070042;28;20435;-60
2021/04/14 09:13:46;;;;;;;8.98;4.80;;;17.40;45.60;;;;;;5069913;28;20376;-59
2021/04/14 09:16:13;;;;;;;9.00;4.50;;;16.60;46.20;;;;;;5070012;28;20379;-61
2021/04/14 09:18:45;;;;;;;9.30;4.60;;;15.90;47.10;;;;;;5069406;28;20380;-61
2021/04/14 09:21:18;;;;;;;7.18;4.50;;;14.40;47.80;;;;;;5069952;28;20371;-61
2021/04/14 09:23:56;;;;;;;8.45;4.43;;;14.20;48.50;;;;;;5068962;28;20949;-61
2021/04/14 09:26:30;;;;;;;9.70;4.53;;;14.10;49.90;;;;;;5069547;28;20493;-61
2021/04/14 09:28:56;;;;;;;6.80;3.60;;;14.70;49.70;;;;;;5069584;28;20483;-61
2021/04/14 09:31:40;;;;;;;9.60;3.97;;;15.00;48.80;;;;;;5069488;28;20391;-61
2021/04/14 09:34:28;;;;;;;7.60;4.38;;;14.00;48.50;;;;;;5069967;28;20497;-61
2021/04/14 09:37:08;;;;;;;6.90;3.90;;;14.20;50.70;;;;;;5068996;28;20384;-61
2021/04/14 09:40:00;;;;;;;7.60;3.67;;;16.00;48.20;;;;;;5069076;28;20709;-60
2021/04/14 09:42:39;;;;;;;8.30;3.30;;;15.80;46.90;;;;;;5069182;28;20395;-59
2021/04/14 09:45:27;;;;;;;8.95;3.78;;;14.90;45.60;;;;;;5069699;28;20481;-61
2021/04/14 09:48:12;;;;;;;8.60;4.00;;;15.60;47.80;;;;;;5069530;28;20437;-59
2021/04/14 09:50:40;;;;;;;10.07;4.63;;;17.10;45.60;;;;;;5068429;28;20726;-60
2021/04/14 09:53:19;;;;;;;10.00;4.68;;;18.30;45.70;;;;;;5069377;28;20422;-60
2021/04/14 09:55:51;;;;;;;7.53;4.15;;;17.90;44.50;;;;;;5068441;28;20460;-59
2021/04/14 09:58:29;;;;;;;9.32;4.43;;;17.00;44.10;;;;;;5069232;28;20438;-61
2021/04/14 10:01:07;;;;;;;8.10;3.60;;;15.10;44.70;;;;;;5069535;28;20388;-61
2021/04/14 10:03:36;;;;;;;7.68;3.50;;;13.80;45.60;;;;;;5068148;28;20807;-58
2021/04/14 10:06:08;;;;;;;8.57;3.70;;;12.30;47.70;;;;;;5071366;28;20367;-59
2021/04/14 10:08:36;;;;;;;7.90;4.00;;;11.60;51.00;;;;;;5071037;28;20438;-60
2021/04/14 10:11:02;;;;;;;7.95;3.75;;;11.20;52.50;;;;;;5073028;28;20433;-60
2021/04/14 10:13:32;;;;;;;7.90;3.70;;;11.30;52.80;;;;;;5072288;28;20459;-58
2021/04/14 10:15:58;;;;;;;7.93;3.60;;;11.50;52.50;;;;;;5071156;28;20737;-58
2021/04/14 10:18:27;;;;;;;8.20;3.40;;;12.80;51.50;;;;;;5071445;28;20395;-60
2021/04/14 10:20:54;;;;;;;8.13;3.50;;;14.10;49.60;;;;;;5072855;28;20442;-61
2021/04/14 10:23:26;;;;;;;7.72;3.60;;;13.60;47.90;;;;;;5071195;28;20399;-58
2021/04/14 10:26:04;;;;;;;8.13;3.50;;;12.80;50.20;;;;;;5072784;28;20403;-61
2021/04/14 10:28:30;;;;;;;10.77;3.97;;;11.70;50.90;;;;;;5070164;28;20959;-60
2021/04/14 10:31:08;;;;;;;10.43;4.10;;;11.00;52.40;;;;;;5073083;28;20470;-61
2021/04/14 10:33:35;;;;;;;8.80;3.65;;;10.40;54.30;;;;;;5053140;28;20750;-61
2021/04/14 10:36:13;;;;;;;7.20;3.63;;;10.30;53.90;;;;;;5069796;28;20402;-61
2021/04/14 10:38:39;;;;;;;6.43;3.20;;;9.80;56.40;;;;;;5070022;28;20440;-60
2021/04/14 10:41:19;;;;;;;7.78;3.38;;;9.90;56.30;;;;;;5070273;28;20745;-60
2021/04/14 10:43:45;;;;;;;7.60;3.40;;;9.80;56.40;;;;;;5071010;28;20376;-60
2021/04/14 10:46:35;;;;;;;8.18;3.03;;;9.50;56.20;;;;;;5070676;28;20395;-60
2021/04/14 10:49:05;;;;;;;10.52;4.22;;;9.60;56.10;;;;;;5070991;28;20411;-60
2021/04/14 10:51:38;;;;;;;13.83;5.40;;;9.40;57.70;;;;;;5068669;28;20478;-60
2021/04/14 10:54:08;;;;;;;8.17;3.90;;;9.20;57.80;;;;;;5053316;28;20722;-60
2021/04/14 10:56:34;;;;;;;10.70;4.40;;;9.50;58.20;;;;;;5071004;28;20391;-60
2021/04/14 10:59:07;;;;;;;17.30;6.15;;;9.60;58.70;;;;;;5069585;28;20493;-60
2021/04/14 11:01:45;;;;;;;7.75;3.70;;;9.80;58.40;;;;;;5068396;28;20494;-60
2021/04/14 11:04:29;;;;;;;19.70;5.40;;;9.90;57.50;;;;;;5050970;28;20427;-60
2021/04/14 11:07:00;;;;;;;15.43;5.17;;;9.90;58.40;;;;;;5067368;28;20388;-60
2021/04/14 11:09:27;;;;;;;13.98;4.88;;;10.10;57.00;;;;;;5070875;28;20813;-59
2021/04/14 11:11:53;;;;;;;15.95;4.97;;;10.00;56.70;;;;;;5068800;28;20448;-60
2021/04/14 11:14:19;;;;;;;13.00;4.47;;;10.20;57.00;;;;;;5071199;28;20391;-60
2021/04/14 11:16:49;;;;;;;7.10;2.80;;;10.10;55.70;;;;;;5067472;28;21077;-60
2021/04/14 11:19:18;;;;;;;8.35;2.88;;;10.30;55.50;;;;;;5070241;28;20372;-60
2021/04/14 11:21:44;;;;;;;5.70;2.80;;;10.00;54.80;;;;;;5069025;28;20396;-60
2021/04/14 11:24:13;;;;;;;5.68;2.80;;;9.90;54.50;;;;;;5070814;28;20372;-60
2021/04/14 11:26:55;;;;;;;7.60;2.90;;;10.10;53.30;;;;;;5068363;28;20399;-60
2021/04/14 11:29:32;;;;;;;7.60;3.40;;;10.20;53.50;;;;;;5070016;28;20407;-60
2021/04/14 11:32:00;;;;;;;7.30;3.10;;;10.30;53.50;;;;;;5023648;28;1336036;-60
2021/04/14 11:34:27;;;;;;;13.48;6.30;;;10.40;54.30;;;;;;5071731;28;20480;-59
2021/04/14 11:37:04;;;;;;;10.45;3.30;;;10.10;55.80;;;;;;5069690;28;20509;-61
2021/04/14 11:39:48;;;;;;;8.40;3.50;;;9.30;63.10;;;;;;5052707;28;20940;-58
2021/04/14 11:42:19;;;;;;;8.57;3.20;;;9.00;68.50;;;;;;5070561;28;20392;-60
2021/04/14 11:44:56;;;;;;;7.13;3.38;;;8.60;73.90;;;;;;5070901;28;20380;-59
2021/04/14 11:47:33;;;;;;;9.40;2.95;;;8.40;79.90;;;;;;5051369;28;20799;-59
2021/04/14 11:50:28;;;;;;;7.22;3.00;;;8.20;83.70;;;;;;5071201;28;20376;-59
2021/04/14 11:52:56;;;;;;;7.50;2.70;;;8.30;84.60;;;;;;5071206;28;20429;-59
2021/04/14 11:55:26;;;;;;;5.97;2.67;;;7.80;82.90;;;;;;5071337;28;20371;-59
2021/04/14 11:58:04;;;;;;;7.80;2.90;;;7.80;84.20;;;;;;5070633;28;20392;-59
2021/04/14 12:00:44;;;;;;;6.30;3.28;;;7.70;86.00;;;;;;5070901;28;20391;-58
2021/04/14 12:03:15;;;;;;;7.72;3.22;;;7.70;86.50;;;;;;5071267;28;20391;-60
2021/04/14 12:05:41;;;;;;;6.40;3.20;;;7.80;89.70;;;;;;5070203;28;20376;-59
2021/04/14 12:08:06;;;;;;;7.20;3.03;;;7.90;89.60;;;;;;5071058;28;20400;-59
2021/04/14 12:10:32;;;;;;;6.10;3.08;;;8.20;84.60;;;;;;5070239;28;20375;-59
2021/04/14 12:12:57;;;;;;;6.63;3.00;;;8.30;84.20;;;;;;5070645;28;20380;-59
2021/04/14 12:15:23;;;;;;;6.10;3.00;;;8.20;83.00;;;;;;5071147;28;20380;-59
2021/04/14 12:17:49;;;;;;;7.93;3.03;;;8.20;81.00;;;;;;5070120;28;20406;-60
2021/04/14 12:20:15;;;;;;;8.05;3.20;;;8.10;80.40;;;;;;5071138;28;20372;-62
2021/04/14 12:22:41;;;;;;;5.70;2.55;;;8.30;78.90;;;;;;5070515;28;20379;-61
2021/04/14 12:25:08;;;;;;;8.67;3.53;;;8.30;74.50;;;;;;5071377;28;20487;-61
2021/04/14 12:27:34;;;;;;;8.60;3.10;;;8.30;74.30;;;;;;5068955;28;20412;-60
2021/04/14 12:29:59;;;;;;;7.47;3.00;;;8.60;73.70;;;;;;5070657;28;20451;-61
2021/04/14 12:32:25;;;;;;;8.50;3.15;;;8.60;70.80;;;;;;5070620;28;20391;-62
2021/04/14 12:34:51;;;;;;;6.07;3.03;;;8.90;70.00;;;;;;5069775;28;20368;-61
2021/04/14 12:37:17;;;;;;;6.40;2.90;;;8.90;68.50;;;;;;5070749;28;20375;-61
2021/04/14 12:39:43;;;;;;;7.63;3.07;;;8.70;70.10;;;;;;5069898;28;20372;-61
2021/04/14 12:42:09;;;;;;;6.28;3.20;;;8.50;75.60;;;;;;5071132;28;20379;-61
2021/04/14 12:44:35;;;;;;;6.80;3.60;;;8.70;74.80;;;;;;5069761;28;20467;-61
2021/04/14 12:47:01;;;;;;;6.97;3.30;;;8.90;74.30;;;;;;5070591;28;20433;-61
2021/04/14 12:49:27;;;;;;;6.90;3.47;;;8.70;77.90;;;;;;5069995;28;20380;-59
2021/04/14 12:52:01;;;;;;;6.22;3.20;;;8.50;76.70;;;;;;5069969;28;20411;-61
2021/04/14 12:54:34;;;;;;;7.20;3.25;;;8.50;76.20;;;;;;5070403;28;20455;-60
2021/04/14 12:57:04;;;;;;;6.88;3.40;;;8.70;75.10;;;;;;5070181;28;20399;-61
2021/04/14 12:59:38;;;;;;;6.32;3.38;;;8.70;73.50;;;;;;5069411;28;20463;-59
2021/04/14 13:02:10;;;;;;;11.05;3.60;;;8.50;74.80;;;;;;5069865;28;20738;-61
2021/04/14 13:04:46;;;;;;;7.78;3.78;;;8.40;77.90;;;;;;5069396;28;20364;-60
2021/04/14 13:07:24;;;;;;;6.55;3.60;;;8.40;79.80;;;;;;5070263;28;20383;-61
2021/04/14 13:09:52;;;;;;;7.07;3.67;;;8.30;81.20;;;;;;5069375;28;20383;-61